sensor_id;sensor_type;location;lat;lon;timestamp;P1;durP1;ratioP1;P2;durP2;ratioP2
66483;SDS011;53299;52.160;7.556;2022-12-18T00:01:29;13.90;;;8.82;;
66483;SDS011;53299;52.160;7.556;2022-12-18T00:03:58;14.43;;;9.27;;
66483;SDS011;53299;52.160;7.556;2022-12-18T00:06:25;14.82;;;9.15;;
66483;SDS011;53299;52.160;7.556;2022-12-18T00:08:52;13.43;;;8.50;;
66483;SDS011;53299;52.160;7.556;2022-12-18T00:11:18;13.98;;;8.65;;
66483;SDS011;53299;52.160;7.556;2022-12-18T00:13:45;13.88;;;8.52;;
66483;SDS011;53299;52.160;7.556;2022-12-18T00:16:13;14.13;;;8.77;;
66483;SDS011;53299;52.160;7.556;2022-12-18T00:18:41;14.20;;;8.65;;
66483;SDS011;53299;52.160;7.556;2022-12-18T00:21:07;14.07;;;8.77;;
66483;SDS011;53299;52.160;7.556;2022-12-18T00:23:34;13.70;;;8.65;;
66483;SDS011;53299;52.160;7.556;2022-12-18T00:26:01;14.47;;;9.00;;
66483;SDS011;53299;52.160;7.556;2022-12-18T00:28:27;15.55;;;8.90;;
66483;SDS011;53299;52.160;7.556;2022-12-18T00:33:45;15.13;;;8.90;;
66483;SDS011;53299;52.160;7.556;2022-12-18T00:36:15;14.00;;;8.98;;
66483;SDS011;53299;52.160;7.556;2022-12-18T00:38:45;14.63;;;9.30;;
66483;SDS011;53299;52.160;7.556;2022-12-18T00:41:11;13.70;;;8.93;;
66483;SDS011;53299;52.160;7.556;2022-12-18T00:43:39;14.67;;;9.10;;
66483;SDS011;53299;52.160;7.556;2022-12-18T00:46:04;13.85;;;8.73;;
66483;SDS011;53299;52.160;7.556;2022-12-18T00:48:30;15.57;;;9.40;;
66483;SDS011;53299;52.160;7.556;2022-12-18T00:50:56;14.30;;;8.63;;
66483;SDS011;53299;52.160;7.556;2022-12-18T00:53:21;14.33;;;8.53;;
66483;SDS011;53299;52.160;7.556;2022-12-18T00:55:46;16.77;;;9.53;;
66483;SDS011;53299;52.160;7.556;2022-12-18T00:58:13;14.15;;;9.27;;
66483;SDS011;53299;52.160;7.556;2022-12-18T01:00:40;15.18;;;9.02;;
66483;SDS011;53299;52.160;7.556;2022-12-18T01:03:06;14.87;;;8.90;;
66483;SDS011;53299;52.160;7.556;2022-12-18T01:05:31;13.98;;;8.48;;
66483;SDS011;53299;52.160;7.556;2022-12-18T01:07:57;14.60;;;9.03;;
66483;SDS011;53299;52.160;7.556;2022-12-18T01:10:23;14.43;;;8.93;;
66483;SDS011;53299;52.160;7.556;2022-12-18T01:12:49;14.17;;;8.77;;
66483;SDS011;53299;52.160;7.556;2022-12-18T01:15:15;14.07;;;9.02;;
66483;SDS011;53299;52.160;7.556;2022-12-18T01:17:40;15.53;;;9.40;;
66483;SDS011;53299;52.160;7.556;2022-12-18T01:20:06;14.30;;;9.20;;
66483;SDS011;53299;52.160;7.556;2022-12-18T01:22:32;14.17;;;8.87;;
66483;SDS011;53299;52.160;7.556;2022-12-18T01:24:57;14.50;;;9.10;;
66483;SDS011;53299;52.160;7.556;2022-12-18T01:27:22;15.23;;;9.93;;
66483;SDS011;53299;52.160;7.556;2022-12-18T01:29:48;15.77;;;9.13;;
66483;SDS011;53299;52.160;7.556;2022-12-18T01:32:14;15.30;;;9.82;;
66483;SDS011;53299;52.160;7.556;2022-12-18T01:34:39;15.90;;;9.87;;
66483;SDS011;53299;52.160;7.556;2022-12-18T01:37:05;14.83;;;9.27;;
66483;SDS011;53299;52.160;7.556;2022-12-18T01:39:31;15.18;;;9.57;;
66483;SDS011;53299;52.160;7.556;2022-12-18T01:41:58;15.27;;;9.73;;
66483;SDS011;53299;52.160;7.556;2022-12-18T01:49:55;15.88;;;9.48;;
66483;SDS011;53299;52.160;7.556;2022-12-18T01:52:22;16.42;;;9.98;;
66483;SDS011;53299;52.160;7.556;2022-12-18T01:54:50;17.00;;;10.17;;
66483;SDS011;53299;52.160;7.556;2022-12-18T01:57:16;15.57;;;9.32;;
66483;SDS011;53299;52.160;7.556;2022-12-18T01:59:42;15.27;;;9.52;;
66483;SDS011;53299;52.160;7.556;2022-12-18T02:02:12;15.33;;;9.40;;
66483;SDS011;53299;52.160;7.556;2022-12-18T02:04:39;15.98;;;9.98;;
66483;SDS011;53299;52.160;7.556;2022-12-18T02:09:50;15.18;;;9.75;;
66483;SDS011;53299;52.160;7.556;2022-12-18T02:12:24;15.63;;;10.13;;
66483;SDS011;53299;52.160;7.556;2022-12-18T02:14:56;16.83;;;9.95;;
66483;SDS011;53299;52.160;7.556;2022-12-18T02:17:28;15.80;;;9.80;;
66483;SDS011;53299;52.160;7.556;2022-12-18T02:20:17;14.98;;;9.75;;
66483;SDS011;53299;52.160;7.556;2022-12-18T02:27:59;14.35;;;9.27;;
66483;SDS011;53299;52.160;7.556;2022-12-18T02:30:26;16.10;;;10.03;;
66483;SDS011;53299;52.160;7.556;2022-12-18T02:32:55;15.75;;;9.93;;
66483;SDS011;53299;52.160;7.556;2022-12-18T02:35:24;15.55;;;9.93;;
66483;SDS011;53299;52.160;7.556;2022-12-18T02:37:53;15.75;;;9.90;;
66483;SDS011;53299;52.160;7.556;2022-12-18T02:40:20;16.10;;;9.88;;
66483;SDS011;53299;52.160;7.556;2022-12-18T02:42:48;16.20;;;9.63;;
66483;SDS011;53299;52.160;7.556;2022-12-18T02:45:14;15.25;;;9.68;;
66483;SDS011;53299;52.160;7.556;2022-12-18T02:47:40;16.37;;;10.03;;
66483;SDS011;53299;52.160;7.556;2022-12-18T02:55:33;15.40;;;9.97;;
66483;SDS011;53299;52.160;7.556;2022-12-18T02:58:19;15.38;;;10.18;;
66483;SDS011;53299;52.160;7.556;2022-12-18T03:00:53;15.23;;;9.90;;
66483;SDS011;53299;52.160;7.556;2022-12-18T03:03:32;16.02;;;10.32;;
66483;SDS011;53299;52.160;7.556;2022-12-18T03:08:44;16.03;;;10.00;;
66483;SDS011;53299;52.160;7.556;2022-12-18T03:11:13;15.52;;;9.48;;
66483;SDS011;53299;52.160;7.556;2022-12-18T03:13:49;16.05;;;10.43;;
66483;SDS011;53299;52.160;7.556;2022-12-18T03:16:22;15.13;;;9.33;;
66483;SDS011;53299;52.160;7.556;2022-12-18T03:18:53;15.85;;;9.85;;
66483;SDS011;53299;52.160;7.556;2022-12-18T03:21:23;15.50;;;10.05;;
66483;SDS011;53299;52.160;7.556;2022-12-18T03:23:54;15.45;;;9.95;;
66483;SDS011;53299;52.160;7.556;2022-12-18T03:26:21;15.40;;;9.82;;
66483;SDS011;53299;52.160;7.556;2022-12-18T03:28:51;14.23;;;9.00;;
66483;SDS011;53299;52.160;7.556;2022-12-18T03:31:21;14.68;;;9.45;;
66483;SDS011;53299;52.160;7.556;2022-12-18T03:33:53;16.20;;;10.52;;
66483;SDS011;53299;52.160;7.556;2022-12-18T03:36:20;15.75;;;9.68;;
66483;SDS011;53299;52.160;7.556;2022-12-18T03:38:45;16.93;;;10.87;;
66483;SDS011;53299;52.160;7.556;2022-12-18T03:41:19;15.30;;;9.93;;
66483;SDS011;53299;52.160;7.556;2022-12-18T03:44:10;14.48;;;9.48;;
66483;SDS011;53299;52.160;7.556;2022-12-18T03:46:46;16.15;;;10.18;;
66483;SDS011;53299;52.160;7.556;2022-12-18T03:49:34;15.27;;;9.35;;
66483;SDS011;53299;52.160;7.556;2022-12-18T03:52:25;17.08;;;10.30;;
66483;SDS011;53299;52.160;7.556;2022-12-18T03:54:51;15.47;;;9.93;;
66483;SDS011;53299;52.160;7.556;2022-12-18T03:57:20;15.50;;;9.82;;
66483;SDS011;53299;52.160;7.556;2022-12-18T03:59:49;16.55;;;10.45;;
66483;SDS011;53299;52.160;7.556;2022-12-18T04:02:17;16.48;;;9.82;;
66483;SDS011;53299;52.160;7.556;2022-12-18T04:04:43;15.85;;;9.95;;
66483;SDS011;53299;52.160;7.556;2022-12-18T04:07:11;16.20;;;10.20;;
66483;SDS011;53299;52.160;7.556;2022-12-18T04:09:38;15.23;;;9.57;;
66483;SDS011;53299;52.160;7.556;2022-12-18T04:12:04;15.82;;;10.50;;
66483;SDS011;53299;52.160;7.556;2022-12-18T04:14:30;16.70;;;10.37;;
66483;SDS011;53299;52.160;7.556;2022-12-18T04:16:55;15.13;;;9.70;;
66483;SDS011;53299;52.160;7.556;2022-12-18T04:19:20;15.73;;;10.20;;
66483;SDS011;53299;52.160;7.556;2022-12-18T04:21:46;16.23;;;10.13;;
66483;SDS011;53299;52.160;7.556;2022-12-18T04:24:11;15.73;;;10.33;;
66483;SDS011;53299;52.160;7.556;2022-12-18T04:26:36;16.50;;;10.30;;
66483;SDS011;53299;52.160;7.556;2022-12-18T04:29:01;16.37;;;10.13;;
66483;SDS011;53299;52.160;7.556;2022-12-18T04:31:27;15.32;;;9.52;;
66483;SDS011;53299;52.160;7.556;2022-12-18T04:33:52;15.43;;;9.63;;
66483;SDS011;53299;52.160;7.556;2022-12-18T04:36:18;14.83;;;9.27;;
66483;SDS011;53299;52.160;7.556;2022-12-18T04:38:43;14.90;;;9.57;;
66483;SDS011;53299;52.160;7.556;2022-12-18T04:41:08;15.07;;;10.07;;
66483;SDS011;53299;52.160;7.556;2022-12-18T04:43:34;14.10;;;9.00;;
66483;SDS011;53299;52.160;7.556;2022-12-18T04:46:02;15.03;;;9.60;;
66483;SDS011;53299;52.160;7.556;2022-12-18T04:48:31;15.88;;;9.77;;
66483;SDS011;53299;52.160;7.556;2022-12-18T04:50:57;13.77;;;9.25;;
66483;SDS011;53299;52.160;7.556;2022-12-18T04:53:23;15.50;;;9.47;;
66483;SDS011;53299;52.160;7.556;2022-12-18T04:55:48;14.97;;;9.63;;
66483;SDS011;53299;52.160;7.556;2022-12-18T04:58:13;14.57;;;9.60;;
66483;SDS011;53299;52.160;7.556;2022-12-18T05:00:38;15.40;;;9.53;;
66483;SDS011;53299;52.160;7.556;2022-12-18T05:03:04;14.93;;;9.07;;
66483;SDS011;53299;52.160;7.556;2022-12-18T05:05:29;14.27;;;9.43;;
66483;SDS011;53299;52.160;7.556;2022-12-18T05:07:54;13.77;;;8.93;;
66483;SDS011;53299;52.160;7.556;2022-12-18T05:10:20;15.10;;;9.60;;
66483;SDS011;53299;52.160;7.556;2022-12-18T05:12:45;15.27;;;9.10;;
66483;SDS011;53299;52.160;7.556;2022-12-18T05:15:10;14.80;;;9.00;;
66483;SDS011;53299;52.160;7.556;2022-12-18T05:17:35;14.77;;;9.30;;
66483;SDS011;53299;52.160;7.556;2022-12-18T05:20:01;13.57;;;9.27;;
66483;SDS011;53299;52.160;7.556;2022-12-18T05:22:26;13.43;;;8.80;;
66483;SDS011;53299;52.160;7.556;2022-12-18T05:24:51;13.63;;;9.30;;
66483;SDS011;53299;52.160;7.556;2022-12-18T05:27:16;13.40;;;8.57;;
66483;SDS011;53299;52.160;7.556;2022-12-18T05:29:41;13.77;;;8.97;;
66483;SDS011;53299;52.160;7.556;2022-12-18T05:32:07;13.27;;;8.30;;
66483;SDS011;53299;52.160;7.556;2022-12-18T05:34:32;14.23;;;9.00;;
66483;SDS011;53299;52.160;7.556;2022-12-18T05:36:57;14.33;;;9.37;;
66483;SDS011;53299;52.160;7.556;2022-12-18T05:39:22;14.63;;;9.07;;
66483;SDS011;53299;52.160;7.556;2022-12-18T05:41:48;13.60;;;8.87;;
66483;SDS011;53299;52.160;7.556;2022-12-18T05:44:13;14.37;;;8.47;;
66483;SDS011;53299;52.160;7.556;2022-12-18T05:46:38;14.57;;;9.07;;
66483;SDS011;53299;52.160;7.556;2022-12-18T05:49:03;14.37;;;8.87;;
66483;SDS011;53299;52.160;7.556;2022-12-18T05:51:29;13.27;;;8.27;;
66483;SDS011;53299;52.160;7.556;2022-12-18T05:53:54;12.13;;;7.83;;
66483;SDS011;53299;52.160;7.556;2022-12-18T05:56:20;12.93;;;7.87;;
66483;SDS011;53299;52.160;7.556;2022-12-18T05:58:47;13.13;;;8.05;;
66483;SDS011;53299;52.160;7.556;2022-12-18T06:01:19;13.13;;;7.70;;
66483;SDS011;53299;52.160;7.556;2022-12-18T06:03:46;12.85;;;7.90;;
66483;SDS011;53299;52.160;7.556;2022-12-18T06:06:12;12.73;;;7.80;;
66483;SDS011;53299;52.160;7.556;2022-12-18T06:08:42;12.10;;;7.47;;
66483;SDS011;53299;52.160;7.556;2022-12-18T06:11:08;10.90;;;7.13;;
66483;SDS011;53299;52.160;7.556;2022-12-18T06:13:33;11.30;;;7.03;;
66483;SDS011;53299;52.160;7.556;2022-12-18T06:16:01;11.97;;;7.57;;
66483;SDS011;53299;52.160;7.556;2022-12-18T06:18:27;11.98;;;7.55;;
66483;SDS011;53299;52.160;7.556;2022-12-18T06:20:55;10.97;;;6.77;;
66483;SDS011;53299;52.160;7.556;2022-12-18T06:23:21;11.90;;;6.97;;
66483;SDS011;53299;52.160;7.556;2022-12-18T06:25:47;11.43;;;6.97;;
66483;SDS011;53299;52.160;7.556;2022-12-18T06:28:12;11.30;;;7.00;;
66483;SDS011;53299;52.160;7.556;2022-12-18T06:30:37;12.00;;;7.13;;
66483;SDS011;53299;52.160;7.556;2022-12-18T06:33:03;11.17;;;6.60;;
66483;SDS011;53299;52.160;7.556;2022-12-18T06:35:28;11.13;;;6.60;;
66483;SDS011;53299;52.160;7.556;2022-12-18T06:37:53;11.13;;;6.40;;
66483;SDS011;53299;52.160;7.556;2022-12-18T06:40:18;11.07;;;6.47;;
66483;SDS011;53299;52.160;7.556;2022-12-18T06:42:44;11.53;;;6.70;;
66483;SDS011;53299;52.160;7.556;2022-12-18T06:45:09;10.67;;;6.27;;
66483;SDS011;53299;52.160;7.556;2022-12-18T06:47:34;10.30;;;6.30;;
66483;SDS011;53299;52.160;7.556;2022-12-18T06:50:00;10.80;;;6.47;;
66483;SDS011;53299;52.160;7.556;2022-12-18T06:52:25;11.20;;;6.67;;
66483;SDS011;53299;52.160;7.556;2022-12-18T06:54:50;10.10;;;6.07;;
66483;SDS011;53299;52.160;7.556;2022-12-18T06:57:15;10.07;;;5.90;;
66483;SDS011;53299;52.160;7.556;2022-12-18T06:59:41;10.43;;;6.37;;
66483;SDS011;53299;52.160;7.556;2022-12-18T07:02:06;10.47;;;6.07;;
66483;SDS011;53299;52.160;7.556;2022-12-18T07:04:31;9.73;;;5.60;;
66483;SDS011;53299;52.160;7.556;2022-12-18T07:06:57;9.90;;;5.83;;
66483;SDS011;53299;52.160;7.556;2022-12-18T07:09:22;9.77;;;5.70;;
66483;SDS011;53299;52.160;7.556;2022-12-18T07:11:47;9.50;;;5.82;;
66483;SDS011;53299;52.160;7.556;2022-12-18T07:14:12;9.57;;;5.90;;
66483;SDS011;53299;52.160;7.556;2022-12-18T07:16:38;9.67;;;5.67;;
66483;SDS011;53299;52.160;7.556;2022-12-18T07:19:03;9.13;;;5.50;;
66483;SDS011;53299;52.160;7.556;2022-12-18T07:21:28;8.97;;;5.43;;
66483;SDS011;53299;52.160;7.556;2022-12-18T07:23:53;10.00;;;5.40;;
66483;SDS011;53299;52.160;7.556;2022-12-18T07:26:19;9.60;;;5.60;;
66483;SDS011;53299;52.160;7.556;2022-12-18T07:28:46;9.13;;;5.13;;
66483;SDS011;53299;52.160;7.556;2022-12-18T07:31:16;9.33;;;4.87;;
66483;SDS011;53299;52.160;7.556;2022-12-18T07:33:43;9.30;;;4.78;;
66483;SDS011;53299;52.160;7.556;2022-12-18T07:36:09;8.90;;;4.93;;
66483;SDS011;53299;52.160;7.556;2022-12-18T07:38:35;8.52;;;5.05;;
66483;SDS011;53299;52.160;7.556;2022-12-18T07:41:01;8.70;;;4.97;;
66483;SDS011;53299;52.160;7.556;2022-12-18T07:43:31;8.30;;;4.85;;
66483;SDS011;53299;52.160;7.556;2022-12-18T07:45:57;8.70;;;4.60;;
66483;SDS011;53299;52.160;7.556;2022-12-18T07:48:22;9.77;;;5.13;;
66483;SDS011;53299;52.160;7.556;2022-12-18T07:50:48;8.83;;;4.77;;
66483;SDS011;53299;52.160;7.556;2022-12-18T07:53:13;9.10;;;4.75;;
66483;SDS011;53299;52.160;7.556;2022-12-18T07:55:38;8.47;;;4.70;;
66483;SDS011;53299;52.160;7.556;2022-12-18T07:58:04;8.73;;;4.77;;
66483;SDS011;53299;52.160;7.556;2022-12-18T08:00:30;8.30;;;4.53;;
66483;SDS011;53299;52.160;7.556;2022-12-18T08:02:56;7.88;;;4.43;;
66483;SDS011;53299;52.160;7.556;2022-12-18T08:05:21;8.00;;;4.50;;
66483;SDS011;53299;52.160;7.556;2022-12-18T08:07:47;8.50;;;4.53;;
66483;SDS011;53299;52.160;7.556;2022-12-18T08:10:12;8.13;;;4.53;;
66483;SDS011;53299;52.160;7.556;2022-12-18T08:12:38;8.17;;;4.70;;
66483;SDS011;53299;52.160;7.556;2022-12-18T08:15:03;7.90;;;4.30;;
66483;SDS011;53299;52.160;7.556;2022-12-18T08:17:29;7.82;;;4.20;;
66483;SDS011;53299;52.160;7.556;2022-12-18T08:19:54;7.57;;;4.10;;
66483;SDS011;53299;52.160;7.556;2022-12-18T08:22:19;8.10;;;3.97;;
66483;SDS011;53299;52.160;7.556;2022-12-18T08:24:44;7.77;;;4.20;;
66483;SDS011;53299;52.160;7.556;2022-12-18T08:27:10;7.37;;;4.17;;
66483;SDS011;53299;52.160;7.556;2022-12-18T08:29:35;7.87;;;3.87;;
66483;SDS011;53299;52.160;7.556;2022-12-18T08:32:01;7.45;;;4.10;;
66483;SDS011;53299;52.160;7.556;2022-12-18T08:34:27;7.73;;;3.90;;
66483;SDS011;53299;52.160;7.556;2022-12-18T08:36:52;8.07;;;4.07;;
66483;SDS011;53299;52.160;7.556;2022-12-18T08:39:17;7.70;;;4.23;;
66483;SDS011;53299;52.160;7.556;2022-12-18T08:41:42;7.70;;;3.70;;
66483;SDS011;53299;52.160;7.556;2022-12-18T08:44:08;7.10;;;3.77;;
66483;SDS011;53299;52.160;7.556;2022-12-18T08:46:37;7.27;;;3.77;;
66483;SDS011;53299;52.160;7.556;2022-12-18T08:49:05;7.15;;;3.53;;
66483;SDS011;53299;52.160;7.556;2022-12-18T08:51:32;7.32;;;3.83;;
66483;SDS011;53299;52.160;7.556;2022-12-18T08:53:57;6.80;;;3.50;;
66483;SDS011;53299;52.160;7.556;2022-12-18T08:56:23;6.63;;;3.43;;
66483;SDS011;53299;52.160;7.556;2022-12-18T08:58:50;6.90;;;3.50;;
66483;SDS011;53299;52.160;7.556;2022-12-18T09:01:19;7.17;;;3.60;;
66483;SDS011;53299;52.160;7.556;2022-12-18T09:03:45;7.03;;;3.15;;
66483;SDS011;53299;52.160;7.556;2022-12-18T09:06:13;6.73;;;3.23;;
66483;SDS011;53299;52.160;7.556;2022-12-18T09:08:39;6.80;;;3.30;;
66483;SDS011;53299;52.160;7.556;2022-12-18T09:11:09;7.00;;;3.23;;
66483;SDS011;53299;52.160;7.556;2022-12-18T09:13:38;7.10;;;3.53;;
66483;SDS011;53299;52.160;7.556;2022-12-18T09:16:03;7.47;;;3.60;;
66483;SDS011;53299;52.160;7.556;2022-12-18T09:18:29;6.63;;;3.00;;
66483;SDS011;53299;52.160;7.556;2022-12-18T09:20:54;7.10;;;3.40;;
66483;SDS011;53299;52.160;7.556;2022-12-18T09:23:20;6.87;;;3.40;;
66483;SDS011;53299;52.160;7.556;2022-12-18T09:25:45;7.17;;;3.67;;
66483;SDS011;53299;52.160;7.556;2022-12-18T09:28:12;8.30;;;4.20;;
66483;SDS011;53299;52.160;7.556;2022-12-18T09:30:39;7.10;;;3.40;;
66483;SDS011;53299;52.160;7.556;2022-12-18T09:33:08;7.15;;;3.78;;
66483;SDS011;53299;52.160;7.556;2022-12-18T09:35:39;7.80;;;4.07;;
66483;SDS011;53299;52.160;7.556;2022-12-18T09:38:05;8.20;;;3.90;;
66483;SDS011;53299;52.160;7.556;2022-12-18T09:40:34;7.75;;;3.58;;
66483;SDS011;53299;52.160;7.556;2022-12-18T09:43:04;8.20;;;3.60;;
66483;SDS011;53299;52.160;7.556;2022-12-18T09:45:38;7.03;;;3.10;;
66483;SDS011;53299;52.160;7.556;2022-12-18T09:48:23;7.60;;;3.50;;
66483;SDS011;53299;52.160;7.556;2022-12-18T09:50:54;7.10;;;3.60;;
66483;SDS011;53299;52.160;7.556;2022-12-18T09:53:25;8.68;;;3.67;;
66483;SDS011;53299;52.160;7.556;2022-12-18T09:55:52;8.33;;;3.33;;
66483;SDS011;53299;52.160;7.556;2022-12-18T09:58:20;7.70;;;3.35;;
66483;SDS011;53299;52.160;7.556;2022-12-18T10:00:54;7.30;;;3.35;;
66483;SDS011;53299;52.160;7.556;2022-12-18T10:03:20;7.13;;;3.03;;
66483;SDS011;53299;52.160;7.556;2022-12-18T10:08:19;7.37;;;3.30;;
66483;SDS011;53299;52.160;7.556;2022-12-18T10:10:51;7.32;;;3.20;;
66483;SDS011;53299;52.160;7.556;2022-12-18T10:13:20;7.65;;;3.40;;
66483;SDS011;53299;52.160;7.556;2022-12-18T10:16:17;7.07;;;3.22;;
66483;SDS011;53299;52.160;7.556;2022-12-18T10:21:44;7.13;;;3.10;;
66483;SDS011;53299;52.160;7.556;2022-12-18T10:26:37;6.60;;;3.00;;
66483;SDS011;53299;52.160;7.556;2022-12-18T10:29:07;8.32;;;3.45;;
66483;SDS011;53299;52.160;7.556;2022-12-18T10:31:36;7.03;;;3.37;;
66483;SDS011;53299;52.160;7.556;2022-12-18T10:34:02;6.60;;;2.88;;
66483;SDS011;53299;52.160;7.556;2022-12-18T10:36:27;7.00;;;3.40;;
66483;SDS011;53299;52.160;7.556;2022-12-18T10:38:52;7.17;;;3.30;;
66483;SDS011;53299;52.160;7.556;2022-12-18T10:43:43;7.40;;;3.60;;
66483;SDS011;53299;52.160;7.556;2022-12-18T10:51:27;7.82;;;3.60;;
66483;SDS011;53299;52.160;7.556;2022-12-18T10:53:59;7.13;;;3.45;;
66483;SDS011;53299;52.160;7.556;2022-12-18T10:56:27;8.55;;;3.33;;
66483;SDS011;53299;52.160;7.556;2022-12-18T10:58:58;7.67;;;3.33;;
66483;SDS011;53299;52.160;7.556;2022-12-18T11:01:26;6.63;;;3.10;;
66483;SDS011;53299;52.160;7.556;2022-12-18T11:06:20;7.00;;;3.40;;
66483;SDS011;53299;52.160;7.556;2022-12-18T11:08:58;8.67;;;4.50;;
66483;SDS011;53299;52.160;7.556;2022-12-18T11:11:24;8.75;;;4.80;;
66483;SDS011;53299;52.160;7.556;2022-12-18T11:14:05;9.30;;;4.70;;
66483;SDS011;53299;52.160;7.556;2022-12-18T11:16:45;9.07;;;4.43;;
66483;SDS011;53299;52.160;7.556;2022-12-18T11:21:51;8.10;;;4.23;;
66483;SDS011;53299;52.160;7.556;2022-12-18T11:24:29;10.23;;;4.30;;
66483;SDS011;53299;52.160;7.556;2022-12-18T11:27:00;7.80;;;4.10;;
66483;SDS011;53299;52.160;7.556;2022-12-18T11:29:34;8.75;;;4.22;;
66483;SDS011;53299;52.160;7.556;2022-12-18T11:34:39;7.75;;;3.97;;
66483;SDS011;53299;52.160;7.556;2022-12-18T11:37:11;7.43;;;3.85;;
66483;SDS011;53299;52.160;7.556;2022-12-18T11:39:40;7.70;;;4.00;;
66483;SDS011;53299;52.160;7.556;2022-12-18T11:42:16;8.65;;;4.10;;
66483;SDS011;53299;52.160;7.556;2022-12-18T11:48:25;9.30;;;3.67;;
66483;SDS011;53299;52.160;7.556;2022-12-18T11:50:50;7.65;;;4.00;;
66483;SDS011;53299;52.160;7.556;2022-12-18T11:53:19;7.03;;;3.57;;
66483;SDS011;53299;52.160;7.556;2022-12-18T11:59:02;7.80;;;3.95;;
66483;SDS011;53299;52.160;7.556;2022-12-18T12:21:36;8.50;;;4.40;;
66483;SDS011;53299;52.160;7.556;2022-12-18T12:29:42;8.32;;;4.20;;
66483;SDS011;53299;52.160;7.556;2022-12-18T12:40:12;8.38;;;4.22;;
66483;SDS011;53299;52.160;7.556;2022-12-18T12:42:44;8.57;;;4.15;;
66483;SDS011;53299;52.160;7.556;2022-12-18T12:45:18;7.15;;;3.67;;
66483;SDS011;53299;52.160;7.556;2022-12-18T12:47:49;8.63;;;4.60;;
66483;SDS011;53299;52.160;7.556;2022-12-18T12:50:16;7.60;;;3.83;;
66483;SDS011;53299;52.160;7.556;2022-12-18T12:52:45;8.05;;;4.20;;
66483;SDS011;53299;52.160;7.556;2022-12-18T12:55:15;8.68;;;4.13;;
66483;SDS011;53299;52.160;7.556;2022-12-18T12:58:06;8.15;;;4.05;;
66483;SDS011;53299;52.160;7.556;2022-12-18T13:00:41;8.40;;;4.17;;
66483;SDS011;53299;52.160;7.556;2022-12-18T13:03:17;7.40;;;3.80;;
66483;SDS011;53299;52.160;7.556;2022-12-18T13:06:22;7.45;;;3.70;;
66483;SDS011;53299;52.160;7.556;2022-12-18T13:08:55;8.25;;;4.10;;
66483;SDS011;53299;52.160;7.556;2022-12-18T13:11:41;7.32;;;3.78;;
66483;SDS011;53299;52.160;7.556;2022-12-18T13:14:10;8.60;;;3.90;;
66483;SDS011;53299;52.160;7.556;2022-12-18T13:16:46;8.18;;;3.85;;
66483;SDS011;53299;52.160;7.556;2022-12-18T13:19:20;8.53;;;4.03;;
66483;SDS011;53299;52.160;7.556;2022-12-18T13:21:52;8.15;;;4.00;;
66483;SDS011;53299;52.160;7.556;2022-12-18T13:26:51;8.43;;;3.65;;
66483;SDS011;53299;52.160;7.556;2022-12-18T13:32:24;8.63;;;3.88;;
66483;SDS011;53299;52.160;7.556;2022-12-18T13:37:52;7.60;;;3.80;;
66483;SDS011;53299;52.160;7.556;2022-12-18T13:43:14;7.90;;;3.78;;
66483;SDS011;53299;52.160;7.556;2022-12-18T13:48:26;7.30;;;3.58;;
66483;SDS011;53299;52.160;7.556;2022-12-18T13:53:51;7.23;;;3.60;;
66483;SDS011;53299;52.160;7.556;2022-12-18T13:56:21;7.15;;;3.55;;
66483;SDS011;53299;52.160;7.556;2022-12-18T14:01:59;7.50;;;3.60;;
66483;SDS011;53299;52.160;7.556;2022-12-18T14:04:30;7.50;;;3.53;;
66483;SDS011;53299;52.160;7.556;2022-12-18T14:06:58;7.43;;;3.60;;
66483;SDS011;53299;52.160;7.556;2022-12-18T14:09:29;7.65;;;3.45;;
66483;SDS011;53299;52.160;7.556;2022-12-18T14:12:00;6.80;;;3.33;;
66483;SDS011;53299;52.160;7.556;2022-12-18T14:14:26;6.82;;;3.05;;
66483;SDS011;53299;52.160;7.556;2022-12-18T14:16:52;7.00;;;3.23;;
66483;SDS011;53299;52.160;7.556;2022-12-18T14:19:17;7.63;;;3.40;;
66483;SDS011;53299;52.160;7.556;2022-12-18T14:21:49;8.65;;;3.20;;
66483;SDS011;53299;52.160;7.556;2022-12-18T14:24:16;6.67;;;3.30;;
66483;SDS011;53299;52.160;7.556;2022-12-18T14:26:44;7.00;;;3.25;;
66483;SDS011;53299;52.160;7.556;2022-12-18T14:29:20;6.97;;;3.38;;
66483;SDS011;53299;52.160;7.556;2022-12-18T14:34:38;8.00;;;3.20;;
66483;SDS011;53299;52.160;7.556;2022-12-18T14:37:04;7.10;;;3.15;;
66483;SDS011;53299;52.160;7.556;2022-12-18T14:39:30;7.10;;;3.30;;
66483;SDS011;53299;52.160;7.556;2022-12-18T14:41:56;6.85;;;3.00;;
66483;SDS011;53299;52.160;7.556;2022-12-18T14:44:21;8.87;;;3.50;;
66483;SDS011;53299;52.160;7.556;2022-12-18T14:46:47;7.20;;;3.10;;
66483;SDS011;53299;52.160;7.556;2022-12-18T14:51:55;6.43;;;3.10;;
66483;SDS011;53299;52.160;7.556;2022-12-18T14:54:24;6.80;;;3.00;;
66483;SDS011;53299;52.160;7.556;2022-12-18T14:56:53;7.32;;;3.10;;
66483;SDS011;53299;52.160;7.556;2022-12-18T14:59:22;6.95;;;2.90;;
66483;SDS011;53299;52.160;7.556;2022-12-18T15:02:12;6.25;;;2.92;;
66483;SDS011;53299;52.160;7.556;2022-12-18T15:04:38;6.70;;;2.83;;
66483;SDS011;53299;52.160;7.556;2022-12-18T15:18:00;6.40;;;2.70;;
66483;SDS011;53299;52.160;7.556;2022-12-18T15:20:26;6.35;;;2.83;;
66483;SDS011;53299;52.160;7.556;2022-12-18T15:22:52;6.38;;;2.70;;
66483;SDS011;53299;52.160;7.556;2022-12-18T15:25:27;6.30;;;2.90;;
66483;SDS011;53299;52.160;7.556;2022-12-18T15:27:59;6.13;;;2.70;;
66483;SDS011;53299;52.160;7.556;2022-12-18T15:30:24;5.87;;;2.73;;
66483;SDS011;53299;52.160;7.556;2022-12-18T15:32:51;6.45;;;3.05;;
66483;SDS011;53299;52.160;7.556;2022-12-18T15:37:47;6.63;;;2.80;;
66483;SDS011;53299;52.160;7.556;2022-12-18T15:40:17;7.53;;;2.80;;
66483;SDS011;53299;52.160;7.556;2022-12-18T15:42:47;6.45;;;3.15;;
66483;SDS011;53299;52.160;7.556;2022-12-18T15:45:13;6.82;;;3.40;;
66483;SDS011;53299;52.160;7.556;2022-12-18T15:47:39;7.57;;;3.55;;
66483;SDS011;53299;52.160;7.556;2022-12-18T15:50:05;7.27;;;3.30;;
66483;SDS011;53299;52.160;7.556;2022-12-18T15:52:37;6.88;;;3.45;;
66483;SDS011;53299;52.160;7.556;2022-12-18T15:55:10;7.10;;;3.17;;
66483;SDS011;53299;52.160;7.556;2022-12-18T15:57:39;7.23;;;3.50;;
66483;SDS011;53299;52.160;7.556;2022-12-18T16:00:05;7.70;;;3.47;;
66483;SDS011;53299;52.160;7.556;2022-12-18T16:02:30;7.07;;;3.40;;
66483;SDS011;53299;52.160;7.556;2022-12-18T16:04:56;6.80;;;3.30;;
66483;SDS011;53299;52.160;7.556;2022-12-18T16:07:21;7.43;;;3.40;;
66483;SDS011;53299;52.160;7.556;2022-12-18T16:09:46;6.97;;;3.60;;
66483;SDS011;53299;52.160;7.556;2022-12-18T16:12:16;7.15;;;3.22;;
66483;SDS011;53299;52.160;7.556;2022-12-18T16:14:44;6.50;;;3.40;;
66483;SDS011;53299;52.160;7.556;2022-12-18T16:17:10;7.32;;;3.47;;
66483;SDS011;53299;52.160;7.556;2022-12-18T16:19:36;7.28;;;3.10;;
66483;SDS011;53299;52.160;7.556;2022-12-18T16:22:03;7.00;;;3.17;;
66483;SDS011;53299;52.160;7.556;2022-12-18T16:24:32;6.55;;;3.03;;
66483;SDS011;53299;52.160;7.556;2022-12-18T16:26:59;6.85;;;3.20;;
66483;SDS011;53299;52.160;7.556;2022-12-18T16:29:25;7.00;;;3.10;;
66483;SDS011;53299;52.160;7.556;2022-12-18T16:31:51;6.40;;;2.97;;
66483;SDS011;53299;52.160;7.556;2022-12-18T16:34:23;7.13;;;3.27;;
66483;SDS011;53299;52.160;7.556;2022-12-18T16:36:50;6.50;;;3.17;;
66483;SDS011;53299;52.160;7.556;2022-12-18T16:39:16;6.85;;;3.25;;
66483;SDS011;53299;52.160;7.556;2022-12-18T16:41:44;6.47;;;2.97;;
66483;SDS011;53299;52.160;7.556;2022-12-18T16:44:10;7.45;;;3.10;;
66483;SDS011;53299;52.160;7.556;2022-12-18T16:46:35;6.43;;;2.90;;
66483;SDS011;53299;52.160;7.556;2022-12-18T16:49:01;5.78;;;2.50;;
66483;SDS011;53299;52.160;7.556;2022-12-18T16:51:27;7.00;;;3.20;;
66483;SDS011;53299;52.160;7.556;2022-12-18T16:53:53;6.53;;;2.90;;